createdAt,value
2018-11-21T00:01:13.927Z,99960.00
2018-11-21T00:03:41.577Z,99972.00
2018-11-21T00:06:09.187Z,99967.00
2018-11-21T00:08:36.957Z,99968.00
2018-11-21T00:11:04.653Z,99942.00
2018-11-21T00:13:32.344Z,99932.00
2018-11-21T00:15:59.964Z,99920.00
2018-11-21T00:18:27.610Z,99924.00
2018-11-21T00:20:55.241Z,99940.00
2018-11-21T00:23:22.830Z,99936.00
2018-11-21T00:25:50.514Z,99941.00
2018-11-21T00:28:18.136Z,99937.00
2018-11-21T00:30:45.713Z,99954.00
2018-11-21T00:33:13.316Z,99958.00
2018-11-21T00:35:40.866Z,99969.00
2018-11-21T00:38:08.505Z,99979.00
2018-11-21T00:40:36.101Z,99971.00
2018-11-21T00:43:03.967Z,99976.00
2018-11-21T00:45:31.641Z,99986.00
2018-11-21T00:47:59.373Z,99993.00
2018-11-21T00:50:27.014Z,99984.00
2018-11-21T00:52:54.756Z,100000.00
2018-11-21T00:55:22.367Z,99992.00
2018-11-21T00:57:49.985Z,99970.00
2018-11-21T01:00:17.597Z,99999.00
2018-11-21T01:02:45.158Z,100004.00
2018-11-21T01:05:12.724Z,99992.00
2018-11-21T01:07:40.306Z,99996.00
2018-11-21T01:10:07.816Z,100001.00
2018-11-21T01:12:35.447Z,99998.00
2018-11-21T01:15:03.031Z,99997.00
2018-11-21T01:17:30.670Z,99994.00
2018-11-21T01:19:58.231Z,100002.00
2018-11-21T01:22:25.837Z,99995.00
2018-11-21T01:24:53.468Z,100010.00
2018-11-21T01:27:21.147Z,100010.00
2018-11-21T01:29:48.691Z,100028.00
2018-11-21T01:32:16.272Z,100024.00
2018-11-21T01:34:43.931Z,100036.00
2018-11-21T01:37:12.371Z,100024.00
2018-11-21T01:39:39.963Z,100025.00
2018-11-21T01:42:07.602Z,100033.00
2018-11-21T01:44:35.200Z,100032.00
2018-11-21T01:47:02.852Z,100031.00
2018-11-21T01:49:31.517Z,100036.00
2018-11-21T01:51:59.168Z,100043.00
2018-11-21T01:54:26.957Z,100043.00
2018-11-21T01:56:54.610Z,100043.00
2018-11-21T01:59:22.192Z,100045.00
2018-11-21T02:01:49.799Z,100046.00
2018-11-21T02:04:17.406Z,100040.00
2018-11-21T02:06:45.025Z,100055.00
2018-11-21T02:09:12.611Z,100058.00
2018-11-21T02:11:40.198Z,100049.00
2018-11-21T02:14:07.876Z,100061.00
2018-11-21T02:16:35.771Z,100055.00
2018-11-21T02:19:03.589Z,100060.00
2018-11-21T02:21:31.271Z,100059.00
2018-11-21T02:23:58.878Z,100069.00
2018-11-21T02:26:26.645Z,100059.00
2018-11-21T02:28:54.198Z,100060.00
2018-11-21T02:31:21.737Z,100065.00
2018-11-21T02:33:49.333Z,100082.00
2018-11-21T02:36:16.931Z,100086.00
2018-11-21T02:38:44.519Z,100088.00
2018-11-21T02:41:12.087Z,100086.00
2018-11-21T02:43:39.661Z,100083.00
2018-11-21T02:46:07.212Z,100082.00
2018-11-21T02:48:34.795Z,100084.00
2018-11-21T02:51:02.335Z,100083.00
2018-11-21T02:53:30.116Z,100084.00
2018-11-21T02:55:57.705Z,100085.00
2018-11-21T02:58:25.304Z,100070.00
2018-11-21T03:00:52.836Z,100075.00
2018-11-21T03:03:20.483Z,100076.00
2018-11-21T03:05:48.727Z,100070.00
2018-11-21T03:08:16.347Z,100077.00
2018-11-21T03:10:44.017Z,100076.00
2018-11-21T03:13:11.620Z,100086.00
2018-11-21T03:15:39.225Z,100087.00
2018-11-21T03:18:06.806Z,100093.00
2018-11-21T03:20:34.411Z,100087.00
2018-11-21T03:23:02.071Z,100091.00
2018-11-21T03:25:29.692Z,100094.00
2018-11-21T03:27:57.293Z,100098.00
2018-11-21T03:30:24.910Z,100101.00
2018-11-21T03:32:52.697Z,100107.00
2018-11-21T03:35:20.411Z,100109.00
2018-11-21T03:37:47.969Z,100115.00
2018-11-21T03:40:15.592Z,100126.00
2018-11-21T03:42:43.219Z,100122.00
2018-11-21T03:45:11.660Z,100130.00
2018-11-21T03:47:39.347Z,100129.00
2018-11-21T03:50:09.307Z,100135.00
2018-11-21T03:52:37.202Z,100143.00
2018-11-21T03:55:05.481Z,100149.00
2018-11-21T03:57:33.055Z,100171.00
2018-11-21T04:00:00.658Z,100161.00
2018-11-21T04:02:28.247Z,100173.00
2018-11-21T04:04:55.835Z,100171.00
2018-11-21T04:07:23.423Z,100169.00
2018-11-21T04:09:50.968Z,100163.00
2018-11-21T04:12:18.511Z,100155.00
2018-11-21T04:14:46.090Z,100149.00
2018-11-21T04:17:13.702Z,100142.00
2018-11-21T04:19:41.260Z,100140.00
2018-11-21T04:22:08.879Z,100157.00
2018-11-21T04:24:36.459Z,100155.00
2018-11-21T04:27:04.189Z,100076.00
2018-11-21T04:29:31.775Z,100153.00
2018-11-21T04:31:59.360Z,100184.00
2018-11-21T04:34:26.948Z,100169.00
2018-11-21T04:36:54.516Z,100178.00
2018-11-21T04:39:22.132Z,100168.00
2018-11-21T04:41:49.677Z,100171.00
2018-11-21T04:44:17.236Z,100176.00
2018-11-21T04:46:44.815Z,100185.00
2018-11-21T04:49:12.438Z,100192.00
2018-11-21T04:51:39.998Z,100179.00
2018-11-21T04:54:07.554Z,100179.00
2018-11-21T04:56:35.091Z,100183.00
2018-11-21T04:59:02.612Z,100186.00
2018-11-21T05:01:30.284Z,100179.00
2018-11-21T05:03:58.342Z,100180.00
2018-11-21T05:06:25.988Z,100159.00
2018-11-21T05:08:53.551Z,100163.00
2018-11-21T05:11:21.258Z,100169.00
2018-11-21T05:13:48.759Z,100184.00
2018-11-21T05:16:16.509Z,100186.00
2018-11-21T05:18:44.161Z,100204.00
2018-11-21T05:21:11.804Z,100199.00
2018-11-21T05:23:39.367Z,100199.00
2018-11-21T05:26:06.946Z,100205.00
2018-11-21T05:28:34.598Z,100210.00
2018-11-21T05:31:02.192Z,100215.00
2018-11-21T05:33:29.830Z,100232.00
2018-11-21T05:35:57.412Z,100236.00
2018-11-21T05:38:25.099Z,100236.00
2018-11-21T05:40:52.703Z,100237.00
2018-11-21T05:43:20.335Z,100237.00
2018-11-21T05:45:47.910Z,100247.00
2018-11-21T05:48:15.522Z,100246.00
2018-11-21T05:50:43.165Z,100260.00
2018-11-21T05:53:10.761Z,100249.00
2018-11-21T05:55:38.293Z,100236.00
2018-11-21T05:58:05.988Z,100236.00
2018-11-21T06:00:33.646Z,100236.00
2018-11-21T06:03:01.256Z,100242.00
2018-11-21T06:05:28.830Z,100248.00
2018-11-21T06:07:56.447Z,100250.00
2018-11-21T06:10:24.068Z,100243.00
2018-11-21T06:12:51.781Z,100251.00
2018-11-21T06:15:19.384Z,100235.00
2018-11-21T06:17:48.303Z,100240.00
2018-11-21T06:20:15.013Z,100243.00
2018-11-21T06:22:43.188Z,100249.00
2018-11-21T06:25:11.480Z,100264.00
2018-11-21T06:27:39.333Z,100268.00
2018-11-21T06:30:12.622Z,100275.00
2018-11-21T06:32:40.748Z,100270.00
2018-11-21T06:35:09.743Z,100276.00
2018-11-21T06:37:37.767Z,100286.00
2018-11-21T06:40:10.320Z,100273.00
2018-11-21T06:42:38.031Z,100286.00
2018-11-21T06:45:07.596Z,100288.00
2018-11-21T06:47:35.224Z,100295.00
2018-11-21T06:50:03.047Z,100298.00
2018-11-21T06:52:30.714Z,100301.00
2018-11-21T06:54:58.352Z,100313.00
2018-11-21T06:57:26.031Z,100316.00
2018-11-21T06:59:53.651Z,100310.00
2018-11-21T07:02:21.259Z,100330.00
2018-11-21T07:04:48.833Z,100337.00
2018-11-21T07:07:16.527Z,100346.00
2018-11-21T07:09:44.142Z,100347.00
2018-11-21T07:12:11.765Z,100355.00
2018-11-21T07:14:39.360Z,100359.00
2018-11-21T07:17:06.914Z,100357.00
2018-11-21T07:19:34.498Z,100356.00
2018-11-21T07:22:02.477Z,100367.00
2018-11-21T07:24:30.107Z,100370.00
2018-11-21T07:26:57.806Z,100373.00
2018-11-21T07:29:25.453Z,100378.00
2018-11-21T07:31:53.203Z,100380.00
2018-11-21T07:34:21.641Z,100370.00
2018-11-21T07:36:50.249Z,100375.00
2018-11-21T07:39:17.828Z,100375.00
2018-11-21T07:41:45.605Z,100377.00
2018-11-21T07:44:13.299Z,100386.00
2018-11-21T07:46:40.980Z,100387.00
2018-11-21T07:49:08.796Z,100379.00
2018-11-21T07:51:36.416Z,100381.00
2018-11-21T07:54:04.471Z,100383.00
2018-11-21T07:57:23.862Z,100386.00
2018-11-21T08:00:47.047Z,100386.00
2018-11-21T08:03:14.889Z,100392.00
2018-11-21T08:05:45.030Z,100383.00
2018-11-21T08:08:27.740Z,100385.00
2018-11-21T08:11:13.473Z,100388.00
2018-11-21T08:13:59.286Z,100395.00
2018-11-21T08:16:55.544Z,100392.00
2018-11-21T08:19:41.206Z,100395.00
2018-11-21T08:22:30.485Z,100403.00
2018-11-21T08:25:16.030Z,100396.00
2018-11-21T08:28:12.107Z,100401.00
2018-11-21T08:30:39.724Z,100400.00
2018-11-21T08:33:07.551Z,100399.00
2018-11-21T08:35:35.144Z,100403.00
2018-11-21T08:38:02.744Z,100410.00
2018-11-21T08:40:30.384Z,100410.00
2018-11-21T08:42:57.999Z,100418.00
2018-11-21T08:45:25.575Z,100415.00
2018-11-21T08:47:53.608Z,100426.00
2018-11-21T08:52:54.932Z,100430.00
2018-11-21T08:55:22.578Z,100430.00
2018-11-21T08:57:50.205Z,100421.00
2018-11-21T09:00:17.883Z,100422.00
2018-11-21T09:02:45.582Z,100416.00
2018-11-21T09:05:13.150Z,100416.00
2018-11-21T09:07:41.366Z,100424.00
2018-11-21T09:10:13.076Z,100426.00
2018-11-21T09:12:40.957Z,100430.00
2018-11-21T09:15:11.867Z,100425.00
2018-11-21T09:17:39.853Z,100425.00
2018-11-21T09:20:08.851Z,100423.00
2018-11-21T09:22:38.742Z,100431.00
2018-11-21T09:25:08.477Z,100434.00
2018-11-21T09:27:36.551Z,100444.00
2018-11-21T09:30:12.105Z,100440.00
2018-11-21T09:32:39.908Z,100428.00
2018-11-21T09:35:10.556Z,100429.00
2018-11-21T09:37:38.239Z,100433.00
2018-11-21T09:40:12.149Z,100441.00
2018-11-21T09:42:41.133Z,100435.00
2018-11-21T09:45:11.436Z,100432.00
2018-11-21T09:47:38.934Z,100441.00
2018-11-21T09:50:11.111Z,100439.00
2018-11-21T09:52:38.849Z,100432.00
2018-11-21T09:55:06.813Z,100435.00
2018-11-21T09:57:34.451Z,100432.00
2018-11-21T10:00:02.746Z,100417.00
2018-11-21T10:03:13.408Z,100420.00
2018-11-21T10:05:42.126Z,100433.00
2018-11-21T10:08:52.285Z,100431.00
2018-11-21T10:11:20.399Z,100443.00
2018-11-21T10:13:48.152Z,100452.00
2018-11-21T10:16:15.931Z,100443.00
2018-11-21T10:18:45.013Z,100446.00
2018-11-21T10:21:14.154Z,100452.00
2018-11-21T10:23:41.816Z,100451.00
2018-11-21T10:26:09.737Z,100452.00
2018-11-21T10:28:37.871Z,100449.00
2018-11-21T10:31:05.544Z,100452.00
2018-11-21T10:33:33.356Z,100459.00
2018-11-21T10:36:01.449Z,100463.00
2018-11-21T10:38:29.165Z,100470.00
2018-11-21T10:40:56.824Z,100465.00
2018-11-21T10:43:28.380Z,100470.00
2018-11-21T10:45:52.207Z,100474.00
2018-11-21T10:48:19.895Z,100469.00
2018-11-21T10:50:47.515Z,100454.00
2018-11-21T10:53:15.223Z,100476.00
2018-11-21T10:55:42.849Z,100467.00
2018-11-21T10:58:10.922Z,100480.00
2018-11-21T11:00:56.748Z,100483.00
2018-11-21T11:03:43.971Z,100337.00
2018-11-21T11:06:46.272Z,100473.00
2018-11-21T11:09:36.214Z,100482.00
2018-11-21T11:12:22.225Z,100472.00
2018-11-21T11:15:09.593Z,100474.00
2018-11-21T11:17:59.473Z,100474.00
2018-11-21T11:20:42.514Z,100474.00
2018-11-21T11:23:28.578Z,100472.00
2018-11-21T11:26:34.138Z,100472.00
2018-11-21T11:29:22.761Z,100476.00
2018-11-21T11:32:28.063Z,100469.00
2018-11-21T11:35:14.029Z,100477.00
2018-11-21T11:38:03.912Z,100472.00
2018-11-21T11:40:49.913Z,100469.00
2018-11-21T11:43:35.498Z,100462.00
2018-11-21T11:46:34.727Z,100475.00
2018-11-21T11:49:40.120Z,100469.00
2018-11-21T11:52:33.362Z,100466.00
2018-11-21T11:55:29.439Z,100462.00
2018-11-21T11:58:16.695Z,100473.00
2018-11-21T12:01:06.630Z,100463.00
2018-11-21T12:03:57.737Z,100458.00
2018-11-21T12:06:38.319Z,100456.00
2018-11-21T12:09:25.924Z,100448.00
2018-11-21T12:12:13.123Z,100447.00
2018-11-21T12:14:59.020Z,100447.00
2018-11-21T12:17:44.773Z,100464.00
2018-11-21T12:20:31.243Z,100453.00
2018-11-21T12:23:18.417Z,100449.00
2018-11-21T12:26:11.399Z,100446.00
2018-11-21T12:29:00.471Z,100453.00
2018-11-21T12:31:52.422Z,100452.00
2018-11-21T12:34:45.378Z,100451.00
2018-11-21T12:37:51.447Z,100457.00
2018-11-21T12:40:37.613Z,100457.00
2018-11-21T12:43:40.242Z,100458.00
2018-11-21T12:46:26.082Z,100454.00
2018-11-21T12:49:22.172Z,100459.00
2018-11-21T12:52:08.327Z,100443.00
2018-11-21T12:54:47.100Z,100445.00
2018-11-21T12:57:37.058Z,100458.00
2018-11-21T13:00:18.441Z,100452.00
2018-11-21T13:03:05.717Z,100453.00
2018-11-21T13:05:54.344Z,100461.00
2018-11-21T13:08:47.794Z,100454.00
2018-11-21T13:11:23.469Z,100464.00
2018-11-21T13:14:04.530Z,100470.00
2018-11-21T13:17:09.952Z,100470.00
2018-11-21T13:19:59.990Z,100473.00
2018-11-21T13:23:05.935Z,100451.00
2018-11-21T13:25:53.155Z,100454.00
2018-11-21T13:28:43.115Z,100453.00
2018-11-21T13:31:35.851Z,100449.00
2018-11-21T13:34:21.819Z,100453.00
2018-11-21T13:37:09.032Z,100462.00
2018-11-21T13:40:08.332Z,100462.00
2018-11-21T13:42:55.368Z,100465.00
2018-11-21T13:45:41.409Z,100468.00
2018-11-21T13:48:37.068Z,100470.00
2018-11-21T13:51:36.368Z,100476.00
2018-11-21T13:54:23.674Z,100482.00
2018-11-21T13:56:51.275Z,100483.00
2018-11-21T13:59:18.917Z,100480.00
2018-11-21T14:01:46.679Z,100472.00
2018-11-21T14:04:15.811Z,100473.00
2018-11-21T14:06:43.541Z,100479.00
2018-11-21T14:09:12.583Z,100478.00
2018-11-21T14:11:40.197Z,100491.00
2018-11-21T14:14:08.724Z,100486.00
2018-11-21T14:16:36.463Z,100487.00
2018-11-21T14:19:05.175Z,100500.00
2018-11-21T14:21:32.807Z,100496.00
2018-11-21T14:24:00.485Z,100493.00
2018-11-21T14:26:28.297Z,100487.00
2018-11-21T14:28:55.971Z,100497.00
2018-11-21T14:31:24.086Z,100503.00
2018-11-21T14:33:51.915Z,100499.00
2018-11-21T14:36:19.598Z,100508.00
2018-11-21T14:38:47.356Z,100506.00
2018-11-21T14:41:15.237Z,100514.00
2018-11-21T14:43:42.959Z,100511.00
2018-11-21T14:46:10.656Z,100510.00
2018-11-21T14:48:38.745Z,100520.00
2018-11-21T14:51:06.430Z,100515.00
2018-11-21T14:53:34.150Z,100522.00
2018-11-21T14:56:01.947Z,100526.00
2018-11-21T14:58:29.783Z,100535.00
2018-11-21T15:00:57.450Z,100542.00
2018-11-21T15:03:25.335Z,100547.00
2018-11-21T15:05:53.010Z,100425.00
2018-11-21T15:08:20.720Z,100548.00
2018-11-21T15:10:49.217Z,100558.00
2018-11-21T15:13:17.578Z,100557.00
2018-11-21T15:15:45.285Z,100560.00
2018-11-21T15:18:13.101Z,100565.00
2018-11-21T15:20:40.767Z,100573.00
2018-11-21T15:23:08.472Z,100571.00
2018-11-21T15:25:36.297Z,100572.00
2018-11-21T15:28:04.039Z,100570.00
2018-11-21T15:30:31.930Z,100575.00
2018-11-21T15:32:59.613Z,100575.00
2018-11-21T15:35:27.726Z,100570.00
2018-11-21T15:37:55.391Z,100580.00
2018-11-21T15:40:24.304Z,100586.00
2018-11-21T15:42:52.119Z,100576.00
2018-11-21T15:45:21.505Z,100577.00
2018-11-21T15:47:54.934Z,100575.00
2018-11-21T15:50:22.694Z,100578.00
2018-11-21T15:52:53.145Z,100577.00
2018-11-21T15:55:18.763Z,100579.00
2018-11-21T15:57:46.687Z,100580.00
2018-11-21T16:00:17.716Z,100577.00
2018-11-21T16:02:46.864Z,100574.00
2018-11-21T16:05:15.118Z,100575.00
2018-11-21T16:07:42.871Z,100565.00
2018-11-21T16:10:18.916Z,100586.00
2018-11-21T16:12:46.053Z,100406.00
2018-11-21T16:15:17.999Z,100583.00
2018-11-21T16:17:45.833Z,100593.00
2018-11-21T16:20:14.784Z,100598.00
2018-11-21T16:22:42.603Z,100601.00
2018-11-21T16:25:12.626Z,100596.00
2018-11-21T16:27:40.986Z,100600.00
2018-11-21T16:30:17.900Z,100605.00
2018-11-21T16:32:46.136Z,100612.00
2018-11-21T16:35:14.174Z,100612.00
2018-11-21T16:37:45.238Z,100621.00
2018-11-21T16:40:18.743Z,100612.00
2018-11-21T16:42:46.811Z,100630.00
2018-11-21T16:45:16.435Z,100635.00
2018-11-21T16:47:44.121Z,100625.00
2018-11-21T16:50:14.079Z,100627.00
2018-11-21T16:52:41.891Z,100631.00
2018-11-21T16:55:12.184Z,100632.00
2018-11-21T16:57:40.002Z,100627.00
2018-11-21T17:00:14.689Z,100629.00
2018-11-21T17:02:42.538Z,100633.00
2018-11-21T17:05:11.915Z,100630.00
2018-11-21T17:07:40.093Z,100626.00
2018-11-21T17:10:10.852Z,100634.00
2018-11-21T17:12:38.759Z,100627.00
2018-11-21T17:15:10.726Z,100633.00
2018-11-21T17:17:38.654Z,100636.00
2018-11-21T17:20:11.039Z,100625.00
2018-11-21T17:22:38.836Z,100628.00
2018-11-21T17:25:10.926Z,100629.00
2018-11-21T17:27:39.260Z,100629.00
2018-11-21T17:30:10.666Z,100630.00
2018-11-21T17:32:39.738Z,100622.00
2018-11-21T17:35:08.800Z,100632.00
2018-11-21T17:37:36.650Z,100637.00
2018-11-21T17:40:14.828Z,100639.00
2018-11-21T17:42:42.534Z,100634.00
2018-11-21T17:45:11.275Z,100638.00
2018-11-21T17:47:39.480Z,100635.00
2018-11-21T17:50:11.041Z,100629.00
2018-11-21T17:52:39.124Z,100633.00
2018-11-21T17:55:10.422Z,100637.00
2018-11-21T17:57:38.661Z,100642.00
2018-11-21T18:00:14.871Z,100636.00
2018-11-21T18:02:45.395Z,100643.00
2018-11-21T18:05:14.740Z,100634.00
2018-11-21T18:07:42.449Z,100643.00
2018-11-21T18:10:16.192Z,100640.00
2018-11-21T18:12:47.119Z,100648.00
2018-11-21T18:15:15.570Z,100647.00
2018-11-21T18:17:44.525Z,100652.00
2018-11-21T18:20:13.057Z,100647.00
2018-11-21T18:22:41.696Z,100652.00
2018-11-21T18:25:12.435Z,100655.00
2018-11-21T18:27:40.187Z,100655.00
2018-11-21T18:30:13.713Z,100659.00
2018-11-21T18:32:42.970Z,100655.00
2018-11-21T18:35:12.480Z,100660.00
2018-11-21T18:37:40.464Z,100662.00
2018-11-21T18:40:12.049Z,100663.00
2018-11-21T18:42:40.082Z,100655.00
2018-11-21T18:45:14.908Z,100655.00
2018-11-21T18:47:43.541Z,100668.00
2018-11-21T18:50:15.611Z,100668.00
2018-11-21T18:52:44.273Z,100667.00
2018-11-21T18:55:14.880Z,100678.00
2018-11-21T18:58:59.833Z,100679.00
2018-11-21T19:01:28.200Z,100689.00
2018-11-21T19:03:56.203Z,100677.00
2018-11-21T19:06:24.067Z,100675.00
2018-11-21T19:08:51.873Z,100681.00
2018-11-21T19:11:19.666Z,100688.00
2018-11-21T19:13:47.397Z,100693.00
2018-11-21T19:16:15.240Z,100695.00
2018-11-21T19:18:43.073Z,100689.00
2018-11-21T19:21:10.938Z,100689.00
2018-11-21T19:23:39.112Z,100691.00
2018-11-21T19:26:07.584Z,100690.00
2018-11-21T19:28:35.346Z,100685.00
2018-11-21T19:31:03.198Z,100687.00
2018-11-21T19:33:31.504Z,100685.00
2018-11-21T19:35:59.689Z,100688.00
2018-11-21T19:38:27.473Z,100694.00
2018-11-21T19:40:55.249Z,100687.00
2018-11-21T19:43:24.126Z,100693.00
2018-11-21T19:45:50.945Z,100696.00
2018-11-21T19:48:18.726Z,100688.00
2018-11-21T19:50:46.476Z,100685.00
2018-11-21T19:53:15.504Z,100694.00
2018-11-21T19:55:43.793Z,100694.00
2018-11-21T19:58:11.615Z,100693.00
2018-11-21T20:00:39.695Z,100695.00
2018-11-21T20:03:07.445Z,100689.00
2018-11-21T20:05:35.306Z,100692.00
2018-11-21T20:08:03.104Z,100683.00
2018-11-21T20:10:30.913Z,100677.00
2018-11-21T20:12:58.713Z,100690.00
2018-11-21T20:15:27.298Z,100692.00
2018-11-21T20:17:56.820Z,100689.00
2018-11-21T20:20:24.633Z,100679.00
2018-11-21T20:22:52.889Z,100690.00
2018-11-21T20:25:21.471Z,100685.00
2018-11-21T20:27:49.201Z,100678.00
2018-11-21T20:30:19.118Z,100683.00
2018-11-21T20:32:47.016Z,100682.00
2018-11-21T20:35:15.504Z,100687.00
2018-11-21T20:37:43.839Z,100691.00
2018-11-21T20:40:17.741Z,100689.00
2018-11-21T20:42:46.238Z,100689.00
2018-11-21T20:45:18.384Z,100694.00
2018-11-21T20:47:48.452Z,100682.00
2018-11-21T20:50:16.485Z,100687.00
2018-11-21T20:52:45.815Z,100692.00
2018-11-21T20:55:14.271Z,100701.00
2018-11-21T20:57:42.662Z,100701.00
2018-11-21T21:00:14.356Z,100686.00
2018-11-21T21:02:42.435Z,100691.00
2018-11-21T21:05:11.590Z,100691.00
2018-11-21T21:07:40.905Z,100693.00
2018-11-21T21:10:11.292Z,100699.00
2018-11-21T21:12:39.344Z,100690.00
2018-11-21T21:15:09.456Z,100703.00
2018-11-21T21:17:39.773Z,100698.00
2018-11-21T21:20:11.422Z,100696.00
2018-11-21T21:22:39.969Z,100692.00
2018-11-21T21:25:15.672Z,100691.00
2018-11-21T21:27:43.431Z,100694.00
2018-11-21T21:30:18.941Z,100696.00
2018-11-21T21:32:47.168Z,100695.00
2018-11-21T21:35:17.796Z,100691.00
2018-11-21T21:37:45.533Z,100700.00
2018-11-21T21:40:20.259Z,100698.00
2018-11-21T21:42:43.137Z,100686.00
2018-11-21T21:45:13.061Z,100685.00
2018-11-21T21:47:41.769Z,100689.00
2018-11-21T21:50:10.148Z,100703.00
2018-11-21T21:52:37.947Z,100696.00
2018-11-21T21:55:09.693Z,100696.00
2018-11-21T21:57:37.516Z,100684.00
2018-11-21T22:00:19.614Z,100693.00
2018-11-21T22:02:48.950Z,100687.00
2018-11-21T22:05:16.714Z,100691.00
2018-11-21T22:07:44.696Z,100675.00
2018-11-21T22:10:14.028Z,100693.00
2018-11-21T22:12:41.904Z,100682.00
2018-11-21T22:15:22.567Z,100678.00
2018-11-21T22:17:51.688Z,100689.00
2018-11-21T22:20:19.866Z,100685.00
2018-11-21T22:22:48.252Z,100682.00
2018-11-21T22:25:16.273Z,100684.00
2018-11-21T22:27:44.002Z,100690.00
2018-11-21T22:30:13.393Z,100689.00
2018-11-21T22:32:42.685Z,100692.00
2018-11-21T22:35:11.774Z,100695.00
2018-11-21T22:37:51.114Z,100692.00
2018-11-21T22:40:14.442Z,100696.00
2018-11-21T22:42:43.203Z,100695.00
2018-11-21T22:45:12.644Z,100691.00
2018-11-21T22:47:40.968Z,100695.00
2018-11-21T22:50:10.905Z,100690.00
2018-11-21T22:52:38.803Z,100699.00
2018-11-21T22:55:09.894Z,100695.00
2018-11-21T22:57:37.901Z,100704.00
2018-11-21T23:00:13.551Z,100698.00
2018-11-21T23:02:41.332Z,100713.00
2018-11-21T23:05:13.304Z,100704.00
2018-11-21T23:07:42.509Z,100706.00
2018-11-21T23:10:12.399Z,100702.00
2018-11-21T23:12:40.439Z,100704.00
2018-11-21T23:15:09.507Z,100703.00
2018-11-21T23:17:37.244Z,100713.00
2018-11-21T23:20:08.533Z,100706.00
2018-11-21T23:22:36.258Z,100709.00
2018-11-21T23:25:04.621Z,100704.00
2018-11-21T23:27:33.104Z,100701.00
2018-11-21T23:30:00.768Z,100702.00
2018-11-21T23:32:30.972Z,100713.00
2018-11-21T23:34:58.899Z,100708.00
2018-11-21T23:37:26.548Z,100704.00
2018-11-21T23:39:54.709Z,100707.00
2018-11-21T23:42:22.855Z,100701.00
2018-11-21T23:44:50.657Z,100706.00
2018-11-21T23:47:18.324Z,100701.00
2018-11-21T23:49:46.847Z,100705.00
2018-11-21T23:52:15.077Z,100711.00
2018-11-21T23:54:42.555Z,100701.00
2018-11-21T23:57:16.170Z,100701.00
2018-11-21T23:59:37.985Z,100701.00
